Time;durP1;ratioP1;P1;durP2;ratioP2;P2;SDS_P1;SDS_P2;PMS_P1;PMS_P2;Temp;Humidity;BMP_temperature;BMP_pressure;BME280_temperature;BME280_humidity;BME280_pressure;Samples;Min_cycle;Max_cycle;Signal;HPM_P1;HPM_P2
2024/03/04 00:02:09;;;;;;;8.77;4.55;;;2.20;99.90;;;;;;6250638;28;20046;-91
2024/03/04 00:05:11;;;;;;;9.25;4.50;;;2.20;99.90;;;;;;6257432;28;20416;-91
2024/03/04 00:08:14;;;;;;;12.18;4.53;;;2.20;99.90;;;;;;6251058;28;20080;-91
2024/03/04 00:11:17;;;;;;;10.02;4.65;;;2.10;99.90;;;;;;6274654;28;20531;-90
2024/03/04 00:14:19;;;;;;;8.85;4.60;;;2.10;99.90;;;;;;6280750;28;20443;-90
2024/03/04 00:17:23;;;;;;;9.45;4.50;;;2.10;99.90;;;;;;6248840;28;20068;-90
2024/03/04 00:20:25;;;;;;;10.60;4.88;;;2.10;99.90;;;;;;6275934;28;20064;-90
2024/03/04 00:23:28;;;;;;;9.07;4.82;;;2.10;99.90;;;;;;6269688;28;20096;-90
2024/03/04 00:26:29;;;;;;;8.48;4.25;;;2.10;99.90;;;;;;6270455;28;20346;-89
2024/03/04 00:29:31;;;;;;;9.27;3.97;;;2.00;99.90;;;;;;6239903;28;20053;-90
2024/03/04 00:32:33;;;;;;;10.98;4.30;;;2.10;99.90;;;;;;6273738;28;20049;-89
2024/03/04 00:35:34;;;;;;;8.90;4.07;;;2.10;99.90;;;;;;6265813;28;20115;-89
2024/03/04 00:38:36;;;;;;;11.38;4.32;;;2.00;99.90;;;;;;6271965;28;20060;-90
2024/03/04 00:41:38;;;;;;;7.50;3.75;;;1.90;99.90;;;;;;6256292;28;20040;-89
2024/03/04 00:44:39;;;;;;;8.38;3.90;;;1.90;99.90;;;;;;6234858;28;20049;-90
2024/03/04 00:47:43;;;;;;;7.68;3.40;;;1.80;99.90;;;;;;6273517;28;20056;-89
2024/03/04 00:50:45;;;;;;;9.95;3.80;;;1.80;99.90;;;;;;6249565;28;20054;-89
2024/03/04 00:53:47;;;;;;;8.02;3.92;;;1.70;99.90;;;;;;6274020;28;20138;-90
2024/03/04 00:56:49;;;;;;;10.35;3.72;;;1.90;99.90;;;;;;6265180;28;20049;-89
2024/03/04 00:59:51;;;;;;;8.05;4.00;;;1.60;99.90;;;;;;6274486;28;20049;-90
2024/03/04 01:02:53;;;;;;;8.75;4.00;;;1.60;99.90;;;;;;6265449;28;20068;-89
2024/03/04 01:05:55;;;;;;;9.07;3.97;;;1.50;99.90;;;;;;6289252;28;20650;-90
2024/03/04 01:08:57;;;;;;;11.30;4.65;;;1.50;99.90;;;;;;6251337;28;20049;-90
2024/03/04 01:12:00;;;;;;;10.00;4.30;;;1.50;99.90;;;;;;6247841;28;20052;-90
2024/03/04 01:15:02;;;;;;;11.68;4.47;;;1.50;99.90;;;;;;6249981;28;20049;-90
2024/03/04 01:18:04;;;;;;;9.88;4.60;;;1.50;99.90;;;;;;6264805;28;20054;-90
2024/03/04 01:21:07;;;;;;;12.40;4.68;;;1.80;99.90;;;;;;6272416;28;20064;-89
2024/03/04 01:24:11;;;;;;;8.68;4.38;;;1.50;99.90;;;;;;6256272;28;20061;-89
2024/03/04 01:27:13;;;;;;;12.35;4.93;;;1.60;99.90;;;;;;6250253;28;20052;-89
2024/03/04 01:30:15;;;;;;;11.30;4.88;;;1.50;99.90;;;;;;6267041;28;20037;-89
2024/03/04 01:33:16;;;;;;;10.02;4.47;;;1.60;99.90;;;;;;6260906;28;20052;-89
2024/03/04 01:36:19;;;;;;;8.57;4.53;;;1.50;99.90;;;;;;6256520;28;20037;-89
2024/03/04 01:39:21;;;;;;;8.38;4.35;;;1.40;99.90;;;;;;6292859;28;20056;-87
2024/03/04 01:42:22;;;;;;;10.98;4.30;;;1.40;99.90;;;;;;6277603;28;20396;-87
2024/03/04 01:45:24;;;;;;;7.68;3.58;;;1.40;99.90;;;;;;6250588;28;20409;-90
2024/03/04 01:48:26;;;;;;;8.48;3.63;;;1.30;99.90;;;;;;6293417;28;20063;-88
2024/03/04 01:51:28;;;;;;;7.00;3.45;;;1.30;99.90;;;;;;6270525;28;20056;-90
2024/03/04 01:54:29;;;;;;;9.88;4.32;;;1.20;99.90;;;;;;6260787;28;20052;-87
2024/03/04 01:57:31;;;;;;;7.38;3.60;;;1.20;99.90;;;;;;6253960;28;20060;-90
2024/03/04 02:00:33;;;;;;;9.25;3.80;;;1.20;99.90;;;;;;6275505;28;20053;-88
2024/03/04 02:03:35;;;;;;;8.57;3.17;;;1.50;99.90;;;;;;6229041;28;20054;-88
2024/03/04 02:06:37;;;;;;;8.02;3.35;;;1.10;99.90;;;;;;6259854;28;20057;-88
2024/03/04 02:09:38;;;;;;;7.85;3.28;;;1.10;99.90;;;;;;6266637;28;20048;-89
2024/03/04 02:12:40;;;;;;;5.53;3.20;;;1.00;99.90;;;;;;6276282;28;20052;-88
2024/03/04 02:15:42;;;;;;;7.95;3.45;;;1.10;99.90;;;;;;6239582;28;20053;-87
2024/03/04 02:18:44;;;;;;;8.50;3.55;;;1.00;99.90;;;;;;6234483;28;20056;-88
2024/03/04 02:21:46;;;;;;;6.38;3.42;;;1.00;99.90;;;;;;6235523;28;20042;-90
2024/03/04 02:24:47;;;;;;;10.75;3.10;;;1.00;99.90;;;;;;6280071;28;20049;-87
2024/03/04 02:27:49;;;;;;;8.02;3.10;;;1.00;99.90;;;;;;6260187;28;20046;-87
2024/03/04 02:30:51;;;;;;;7.45;3.85;;;1.00;99.90;;;;;;6265216;28;20045;-87
2024/03/04 02:33:52;;;;;;;6.30;3.20;;;1.00;99.90;;;;;;6232162;28;20065;-87
2024/03/04 02:36:54;;;;;;;10.68;3.67;;;1.00;99.90;;;;;;6264983;28;20052;-86
2024/03/04 02:39:56;;;;;;;7.22;2.78;;;0.90;99.90;;;;;;6266555;28;20056;-87
2024/03/04 02:42:58;;;;;;;5.82;2.90;;;0.90;99.90;;;;;;6287643;28;20042;-87
2024/03/04 02:46:07;;;;;;;8.82;2.90;;;0.90;99.90;;;;;;6280959;28;20061;-87
2024/03/04 02:49:10;;;;;;;7.47;3.55;;;0.90;99.90;;;;;;6237809;28;20382;-86
2024/03/04 02:52:11;;;;;;;7.70;2.80;;;0.90;99.90;;;;;;6274952;28;20041;-87
2024/03/04 02:55:14;;;;;;;8.68;3.30;;;0.90;99.90;;;;;;6268081;28;20041;-87
2024/03/04 02:58:16;;;;;;;7.72;3.38;;;0.90;99.90;;;;;;6279543;28;20045;-86
2024/03/04 03:01:18;;;;;;;8.82;3.90;;;0.80;99.90;;;;;;6267194;28;20057;-87
2024/03/04 03:04:20;;;;;;;10.40;3.20;;;0.80;99.90;;;;;;6291181;28;20053;-88
2024/03/04 03:07:22;;;;;;;4.93;2.75;;;0.80;99.90;;;;;;6250886;28;20489;-89
2024/03/04 03:10:24;;;;;;;5.95;3.05;;;0.80;99.90;;;;;;6275311;28;20083;-87
2024/03/04 03:13:26;;;;;;;8.65;3.20;;;0.80;99.90;;;;;;6240751;28;20481;-88
2024/03/04 03:16:27;;;;;;;6.68;2.60;;;1.40;99.90;;;;;;6291652;28;20056;-88
2024/03/04 03:19:29;;;;;;;6.75;2.58;;;0.80;99.90;;;;;;6271841;28;20064;-87
2024/03/04 03:22:31;;;;;;;7.45;2.50;;;0.70;99.90;;;;;;6258134;28;20057;-88
2024/03/04 03:25:33;;;;;;;7.35;2.60;;;0.70;99.90;;;;;;6258030;28;20496;-87
2024/03/04 03:28:34;;;;;;;8.25;2.80;;;1.40;99.90;;;;;;6259127;28;20041;-86
2024/03/04 03:31:36;;;;;;;6.85;3.00;;;0.70;99.90;;;;;;6268324;28;20199;-87
2024/03/04 03:34:38;;;;;;;7.53;3.03;;;0.70;99.90;;;;;;6256733;28;20087;-86
2024/03/04 03:37:40;;;;;;;7.22;3.13;;;0.60;99.90;;;;;;6263419;28;20048;-88
2024/03/04 03:40:41;;;;;;;8.70;3.72;;;0.70;99.90;;;;;;6263770;28;20190;-85
2024/03/04 03:43:43;;;;;;;6.95;3.08;;;0.60;99.90;;;;;;6246301;28;20135;-87
2024/03/04 03:46:45;;;;;;;7.57;2.95;;;0.60;99.90;;;;;;6290035;28;20052;-86
2024/03/04 03:49:47;;;;;;;7.05;3.08;;;0.60;99.90;;;;;;6251368;28;20053;-87
2024/03/04 03:52:49;;;;;;;6.22;3.00;;;0.60;99.90;;;;;;6274229;28;20045;-87
2024/03/04 03:55:50;;;;;;;7.10;3.30;;;0.60;99.90;;;;;;6266347;28;20060;-88
2024/03/04 03:58:52;;;;;;;8.43;2.97;;;0.60;99.90;;;;;;6253444;28;20053;-88
2024/03/04 04:01:54;;;;;;;7.70;3.20;;;0.50;99.90;;;;;;6254374;28;20053;-88
2024/03/04 04:04:55;;;;;;;5.80;2.90;;;0.50;99.90;;;;;;6255812;28;20060;-86
2024/03/04 04:08:00;;;;;;;7.68;2.90;;;0.40;99.90;;;;;;6250189;28;20064;-88
2024/03/04 04:11:02;;;;;;;6.20;2.97;;;0.50;99.90;;;;;;6289752;28;20527;-87
2024/03/04 04:14:04;;;;;;;8.38;3.28;;;0.40;99.90;;;;;;6244255;28;20619;-87
2024/03/04 04:17:06;;;;;;;5.93;2.92;;;0.40;99.90;;;;;;6250251;28;20049;-89
2024/03/04 04:20:07;;;;;;;7.13;3.17;;;0.40;99.90;;;;;;6285919;28;20072;-88
2024/03/04 04:23:09;;;;;;;8.05;3.15;;;0.40;99.90;;;;;;6251601;28;20050;-87
2024/03/04 04:26:11;;;;;;;7.95;2.95;;;0.40;99.90;;;;;;6255871;28;20513;-87
2024/03/04 04:29:12;;;;;;;10.40;3.60;;;0.40;99.90;;;;;;6273128;28;20045;-87
2024/03/04 04:32:15;;;;;;;9.07;3.67;;;0.40;99.90;;;;;;6268172;28;20049;-86
2024/03/04 04:35:17;;;;;;;5.97;2.88;;;0.40;99.90;;;;;;6272798;28;20045;-87
2024/03/04 04:38:19;;;;;;;6.63;3.20;;;0.50;99.90;;;;;;6264659;28;20045;-87
2024/03/04 04:41:21;;;;;;;7.00;3.72;;;0.60;99.90;;;;;;6272330;28;20493;-87
2024/03/04 04:44:23;;;;;;;9.15;3.33;;;0.70;99.90;;;;;;6239756;28;20049;-87
2024/03/04 04:47:26;;;;;;;8.77;3.10;;;0.80;99.90;;;;;;6284039;28;20049;-88
2024/03/04 04:50:29;;;;;;;7.82;3.00;;;0.90;99.90;;;;;;6273791;28;20056;-87
2024/03/04 04:53:30;;;;;;;8.77;3.25;;;1.00;99.90;;;;;;6265028;28;20053;-86
2024/03/04 04:56:32;;;;;;;7.88;3.50;;;1.10;99.90;;;;;;6273133;28;20045;-87
2024/03/04 04:59:34;;;;;;;8.60;3.58;;;1.30;99.90;;;;;;6254209;28;20057;-87
2024/03/04 05:02:35;;;;;;;7.97;3.42;;;1.40;99.90;;;;;;6269422;28;20044;-88
2024/03/04 05:05:37;;;;;;;8.35;3.38;;;1.50;99.90;;;;;;6251652;28;20063;-87
2024/03/04 05:08:39;;;;;;;7.75;3.60;;;1.50;99.90;;;;;;6278086;28;20132;-87
2024/03/04 05:11:41;;;;;;;5.47;2.90;;;1.60;99.90;;;;;;6268908;28;20045;-88
2024/03/04 05:14:43;;;;;;;8.55;3.70;;;1.70;99.90;;;;;;6246074;28;20054;-86
2024/03/04 05:17:44;;;;;;;8.27;3.30;;;1.80;99.90;;;;;;6242351;28;20779;-87
2024/03/04 05:20:46;;;;;;;7.85;3.35;;;1.90;99.90;;;;;;6250318;28;20057;-86
2024/03/04 05:23:57;;;;;;;6.72;2.97;;;2.00;99.90;;;;;;6204300;28;20054;-87
2024/03/04 05:26:59;;;;;;;7.55;3.40;;;2.10;99.90;;;;;;6283878;28;20056;-87
2024/03/04 05:30:00;;;;;;;9.05;3.47;;;2.30;99.90;;;;;;6240849;28;20049;-87
2024/03/04 05:33:03;;;;;;;6.53;3.28;;;2.40;99.90;;;;;;6240150;28;20041;-84
2024/03/04 05:36:08;;;;;;;10.85;3.38;;;2.70;99.90;;;;;;6224322;28;20057;-84
2024/03/04 05:39:10;;;;;;;9.10;3.00;;;2.50;99.90;;;;;;6236434;28;20111;-84
2024/03/04 05:42:12;;;;;;;9.15;3.38;;;2.50;99.90;;;;;;6230711;28;20065;-86
2024/03/04 05:45:13;;;;;;;6.90;3.08;;;2.40;99.90;;;;;;6238980;28;20064;-87
2024/03/04 05:48:15;;;;;;;9.70;3.08;;;2.30;99.90;;;;;;6229795;28;20045;-85
2024/03/04 05:51:17;;;;;;;8.25;2.60;;;2.20;99.90;;;;;;6228285;28;20319;-88
2024/03/04 05:54:18;;;;;;;6.28;2.78;;;2.10;99.90;;;;;;6247855;28;20064;-87
2024/03/04 05:57:20;;;;;;;5.07;2.65;;;2.10;99.90;;;;;;6256386;28;20054;-88
2024/03/04 06:00:22;;;;;;;6.60;2.88;;;1.90;99.90;;;;;;6229938;28;20500;-88
2024/03/04 06:03:24;;;;;;;5.95;2.55;;;1.90;99.90;;;;;;6255944;28;20417;-87
2024/03/04 06:06:25;;;;;;;10.60;2.85;;;1.90;99.90;;;;;;6247341;28;20505;-87
2024/03/04 06:09:27;;;;;;;5.55;2.50;;;2.00;99.90;;;;;;6224344;28;20064;-87
2024/03/04 06:12:29;;;;;;;8.50;2.65;;;2.10;99.90;;;;;;6278388;28;20068;-87
2024/03/04 06:15:30;;;;;;;6.63;2.17;;;2.10;99.90;;;;;;6237164;28;20050;-87
2024/03/04 06:18:32;;;;;;;5.35;2.53;;;2.10;99.90;;;;;;6230866;28;20062;-88
2024/03/04 06:21:36;;;;;;;8.23;2.40;;;2.00;99.90;;;;;;6278866;28;20091;-86
2024/03/04 06:24:37;;;;;;;7.57;2.85;;;2.30;99.90;;;;;;6223621;28;20061;-87
2024/03/04 06:27:40;;;;;;;5.95;2.45;;;1.80;99.90;;;;;;6245561;28;20057;-81
2024/03/04 06:30:43;;;;;;;6.30;2.90;;;1.70;99.90;;;;;;6249193;28;20053;-87
2024/03/04 06:33:45;;;;;;;6.85;2.63;;;1.70;99.90;;;;;;6231023;28;20058;-87
2024/03/04 06:36:54;;;;;;;10.80;4.78;;;2.00;99.90;;;;;;6228856;28;20054;-89
2024/03/04 06:39:56;;;;;;;7.72;2.90;;;1.60;99.90;;;;;;6246662;28;20060;-88
2024/03/04 06:42:58;;;;;;;6.97;3.00;;;1.60;99.90;;;;;;6227909;28;20184;-88
2024/03/04 06:45:59;;;;;;;6.45;3.10;;;1.50;99.90;;;;;;6247753;28;20065;-88
2024/03/04 06:49:01;;;;;;;8.02;2.70;;;1.60;99.90;;;;;;6222742;28;20064;-87
2024/03/04 06:52:03;;;;;;;7.47;2.97;;;1.60;99.90;;;;;;6246548;28;20057;-88
2024/03/04 06:55:05;;;;;;;9.60;3.45;;;1.60;99.90;;;;;;6255072;28;20085;-87
2024/03/04 06:58:07;;;;;;;8.02;2.75;;;1.70;99.90;;;;;;6254608;28;20610;-89
2024/03/04 07:01:08;;;;;;;8.23;3.13;;;1.70;99.90;;;;;;6254605;28;20061;-89
2024/03/04 07:04:11;;;;;;;8.20;3.40;;;1.70;99.90;;;;;;6279364;28;20075;-88
2024/03/04 07:07:13;;;;;;;10.93;2.90;;;1.70;99.90;;;;;;6255113;28;20124;-88
2024/03/04 07:10:14;;;;;;;6.93;2.30;;;1.70;99.90;;;;;;6245317;28;20053;-88
2024/03/04 07:13:17;;;;;;;7.25;3.00;;;1.80;99.90;;;;;;6243342;28;20134;-88
2024/03/04 07:16:20;;;;;;;7.60;3.35;;;1.80;99.90;;;;;;6279899;28;20103;-88
2024/03/04 07:19:23;;;;;;;8.80;3.75;;;1.90;99.90;;;;;;6233470;28;20144;-87
2024/03/04 07:22:25;;;;;;;7.22;3.45;;;2.10;99.90;;;;;;6271531;28;20060;-87
2024/03/04 07:25:26;;;;;;;9.60;3.67;;;2.30;99.90;;;;;;6246651;28;20188;-87
2024/03/04 07:28:29;;;;;;;10.43;3.50;;;2.50;99.90;;;;;;6266889;28;20203;-88
2024/03/04 07:31:31;;;;;;;7.20;3.08;;;3.00;99.90;;;;;;6270341;28;20053;-86
2024/03/04 07:34:32;;;;;;;14.07;3.83;;;2.70;99.90;;;;;;6260764;28;20057;-85
2024/03/04 07:37:34;;;;;;;8.90;3.47;;;2.70;99.90;;;;;;6284362;28;20424;-87
2024/03/04 07:40:36;;;;;;;11.90;3.72;;;2.80;99.90;;;;;;6246116;28;20516;-88
2024/03/04 07:43:40;;;;;;;10.40;4.05;;;2.90;99.90;;;;;;6256854;28;20119;-88
2024/03/04 07:46:42;;;;;;;11.27;4.00;;;2.90;99.90;;;;;;6285021;28;20059;-85
2024/03/04 07:49:44;;;;;;;12.27;4.63;;;3.10;99.90;;;;;;6251430;28;20049;-85
2024/03/04 07:52:47;;;;;;;11.07;3.92;;;3.70;99.90;;;;;;6271850;28;20052;-87
2024/03/04 07:55:49;;;;;;;9.18;3.38;;;4.80;99.90;;;;;;6246490;28;20045;-87
2024/03/04 07:58:51;;;;;;;8.57;2.38;;;5.90;99.90;;;;;;6252954;28;20049;-88
2024/03/04 08:01:52;;;;;;;12.07;2.33;;;6.80;99.90;;;;;;6286333;28;20052;-87
2024/03/04 08:04:54;;;;;;;5.18;2.08;;;7.80;99.90;;;;;;6246617;28;20049;-85
2024/03/04 08:07:56;;;;;;;5.40;1.80;;;9.20;99.90;;;;;;6284900;28;20080;-85
2024/03/04 08:10:57;;;;;;;4.75;1.73;;;10.50;99.90;;;;;;6245103;28;20154;-86
2024/03/04 08:13:59;;;;;;;9.45;2.28;;;11.10;66.70;;;;;;6237516;28;20061;-86
2024/03/04 08:17:01;;;;;;;5.05;2.00;;;11.60;86.00;;;;;;6270001;28;20044;-86
2024/03/04 08:20:03;;;;;;;4.60;1.77;;;11.80;38.70;;;;;;6271510;28;20064;-87
2024/03/04 08:23:17;;;;;;;4.43;1.75;;;12.20;10.30;;;;;;6235199;28;20110;-86
2024/03/04 08:26:19;;;;;;;4.10;1.77;;;12.40;1.00;;;;;;6277357;28;20056;-85
2024/03/04 08:29:21;;;;;;;6.43;1.95;;;12.80;7.30;;;;;;6241440;28;20053;-84
2024/03/04 08:32:23;;;;;;;5.40;1.70;;;13.30;1.00;;;;;;6246122;28;20511;-85
2024/03/04 08:35:24;;;;;;;4.30;1.77;;;13.90;1.00;;;;;;6268991;28;20052;-89
2024/03/04 08:38:26;;;;;;;10.35;2.05;;;14.50;1.00;;;;;;6246503;28;20061;-89
2024/03/04 08:41:28;;;;;;;6.70;2.25;;;14.40;1.00;;;;;;6269690;28;20049;-87
2024/03/04 08:44:30;;;;;;;5.85;1.80;;;14.70;1.00;;;;;;6260187;28;20306;-84
2024/03/04 08:47:32;;;;;;;4.78;1.30;;;14.90;1.00;;;;;;6260268;28;20050;-86
2024/03/04 08:50:33;;;;;;;3.75;1.40;;;15.00;1.00;;;;;;6282320;28;20049;-83
2024/03/04 08:53:35;;;;;;;5.55;1.67;;;15.10;1.00;;;;;;6262396;28;20050;-83
2024/03/04 08:56:38;;;;;;;4.45;1.30;;;15.40;1.00;;;;;;6283424;28;20057;-87
2024/03/04 08:59:43;;;;;;;4.53;1.30;;;15.80;1.00;;;;;;6215632;28;20066;-87
2024/03/04 09:02:45;;;;;;;4.28;1.27;;;15.00;1.00;;;;;;6267540;28;20056;-84
2024/03/04 09:05:46;;;;;;;3.42;1.30;;;14.70;1.00;;;;;;6245235;28;20390;-88
2024/03/04 09:08:58;;;;;;;7.22;1.35;;;14.80;1.00;;;;;;6271000;28;20060;-94
2024/03/04 09:12:27;;;;;;;8.48;1.38;;;15.30;1.00;;;;;;6229161;28;20053;-89
2024/03/04 09:15:28;;;;;;;4.60;1.48;;;15.40;1.00;;;;;;6233569;28;20536;-88
2024/03/04 09:18:33;;;;;;;4.82;1.17;;;15.50;1.00;;;;;;6289671;28;20557;-92
2024/03/04 09:21:35;;;;;;;4.60;1.15;;;16.10;1.00;;;;;;6266292;28;20764;-88
2024/03/04 09:24:37;;;;;;;3.33;0.80;;;16.00;1.00;;;;;;6266071;28;20056;-92
2024/03/04 09:27:39;;;;;;;3.45;0.90;;;16.10;1.00;;;;;;6248586;28;20352;-92
2024/03/04 09:30:40;;;;;;;4.50;1.13;;;16.20;1.00;;;;;;6279705;28;20127;-92
2024/03/04 09:33:42;;;;;;;4.47;0.90;;;16.10;1.00;;;;;;6246352;28;20402;-92
2024/03/04 09:36:44;;;;;;;5.78;1.00;;;16.60;1.00;;;;;;6240305;28;20053;-94
2024/03/04 09:39:46;;;;;;;6.53;1.05;;;16.40;1.00;;;;;;6226834;28;20054;-94
2024/03/04 09:42:48;;;;;;;2.90;0.80;;;16.50;1.00;;;;;;6254471;28;20049;-83
2024/03/04 09:45:52;;;;;;;3.42;0.93;;;16.00;1.00;;;;;;6294909;28;20464;-92
2024/03/04 09:48:58;;;;;;;4.30;1.10;;;16.10;1.00;;;;;;6275142;28;20060;-94
2024/03/04 09:52:00;;;;;;;4.60;1.10;;;16.40;1.00;;;;;;6256042;28;20057;-91
2024/03/04 09:55:04;;;;;;;5.20;1.30;;;15.50;1.00;;;;;;6258800;28;20228;-87
2024/03/04 09:58:05;;;;;;;4.72;1.10;;;14.30;1.00;;;;;;6270245;28;20049;-85
2024/03/04 10:01:07;;;;;;;5.80;0.90;;;14.80;1.00;;;;;;6280408;28;20113;-94
2024/03/04 10:04:09;;;;;;;6.07;1.15;;;15.00;1.00;;;;;;6296770;28;20049;-91
2024/03/04 10:07:11;;;;;;;3.17;1.00;;;15.00;1.00;;;;;;6263725;28;20057;-86
2024/03/04 10:10:13;;;;;;;3.13;1.00;;;16.40;1.00;;;;;;6275295;28;20455;-87
2024/03/04 10:13:15;;;;;;;6.03;1.02;;;16.70;1.00;;;;;;6266753;28;20045;-91
2024/03/04 10:16:17;;;;;;;6.68;1.00;;;16.10;1.00;;;;;;6290698;28;20063;-91
2024/03/04 10:19:19;;;;;;;4.97;1.00;;;15.50;1.00;;;;;;6258262;28;20057;-93
2024/03/04 10:22:21;;;;;;;7.35;1.10;;;15.70;1.00;;;;;;6292783;28;20060;-91
2024/03/04 10:25:23;;;;;;;3.35;1.02;;;15.60;1.00;;;;;;6250478;28;20051;-83
2024/03/04 10:28:25;;;;;;;7.85;1.05;;;15.70;1.00;;;;;;6275322;28;20477;-82
2024/03/04 10:31:27;;;;;;;4.25;1.27;;;15.20;1.00;;;;;;6272217;28;20623;-84
2024/03/04 10:34:28;;;;;;;5.30;1.13;;;15.00;1.00;;;;;;6249447;28;20509;-83
2024/03/04 10:37:30;;;;;;;10.15;1.15;;;14.60;1.00;;;;;;6276143;28;20085;-88
2024/03/04 10:40:36;;;;;;;10.30;1.30;;;14.10;1.00;;;;;;6252196;28;20053;-83
2024/03/04 10:43:38;;;;;;;6.88;1.02;;;13.50;1.00;;;;;;6262732;28;20050;-87
2024/03/04 10:46:40;;;;;;;6.95;1.40;;;13.10;1.00;;;;;;6296448;28;20076;-89
2024/03/04 10:49:42;;;;;;;8.05;1.45;;;12.40;1.00;;;;;;6250417;28;20069;-90
2024/03/04 10:52:44;;;;;;;8.80;1.80;;;12.30;1.00;;;;;;6285017;28;20048;-91
2024/03/04 10:55:45;;;;;;;5.97;1.70;;;12.70;1.00;;;;;;6265330;28;20053;-85
2024/03/04 10:58:49;;;;;;;7.03;1.63;;;13.10;1.00;;;;;;6258321;28;20113;-92
2024/03/04 11:01:51;;;;;;;7.22;1.58;;;13.80;1.00;;;;;;6289826;28;20071;-87
2024/03/04 11:04:53;;;;;;;9.00;1.30;;;15.10;1.00;;;;;;6247253;28;20509;-84
2024/03/04 11:07:55;;;;;;;4.90;1.27;;;16.50;1.00;;;;;;6267927;28;20420;-85
2024/03/04 11:10:57;;;;;;;6.13;1.35;;;15.70;1.00;;;;;;6270621;28;20064;-86
2024/03/04 11:14:03;;;;;;;6.15;1.00;;;15.70;1.00;;;;;;6263866;28;20061;-92
2024/03/04 11:17:09;;;;;;;7.13;1.25;;;14.90;1.00;;;;;;6285786;28;20515;-86
2024/03/04 11:20:11;;;;;;;4.70;1.30;;;14.80;1.00;;;;;;6273666;28;20552;-83
2024/03/04 11:23:12;;;;;;;6.45;1.45;;;14.70;1.00;;;;;;6270131;28;20064;-85
2024/03/04 11:26:14;;;;;;;4.88;1.40;;;14.10;1.00;;;;;;6270559;28;20401;-81
2024/03/04 11:29:15;;;;;;;6.00;1.30;;;14.60;1.00;;;;;;6233896;28;20056;-82
2024/03/04 11:32:17;;;;;;;4.13;1.10;;;15.40;1.00;;;;;;6272621;28;20060;-90
2024/03/04 11:35:19;;;;;;;8.32;1.80;;;15.60;1.00;;;;;;6240369;28;20166;-92
2024/03/04 11:38:21;;;;;;;6.32;1.48;;;14.50;1.00;;;;;;6274746;28;20091;-92
2024/03/04 11:41:23;;;;;;;6.57;1.63;;;14.10;1.00;;;;;;6269327;28;20057;-86
2024/03/04 11:44:27;;;;;;;7.32;1.38;;;13.60;1.00;;;;;;6269452;28;20129;-89
2024/03/04 11:47:32;;;;;;;5.95;1.00;;;14.20;1.00;;;;;;6236431;28;20054;-88
2024/03/04 11:50:34;;;;;;;9.75;1.40;;;13.90;1.00;;;;;;6285700;28;20403;-87
2024/03/04 11:53:39;;;;;;;5.82;1.38;;;14.00;1.00;;;;;;6259396;28;20053;-89
2024/03/04 11:56:41;;;;;;;8.68;1.40;;;13.70;1.00;;;;;;6270637;28;20057;-82
2024/03/04 11:59:43;;;;;;;6.15;1.60;;;13.20;1.00;;;;;;6229376;28;20054;-82
2024/03/04 12:02:44;;;;;;;6.88;1.58;;;13.40;1.00;;;;;;6268023;28;20416;-84
2024/03/04 12:05:46;;;;;;;4.88;1.30;;;13.60;1.00;;;;;;6244720;28;20053;-82
2024/03/04 12:08:48;;;;;;;6.88;1.30;;;13.10;1.00;;;;;;6268293;28;20156;-82
2024/03/04 12:12:13;;;;;;;6.15;1.02;;;13.20;1.00;;;;;;6244506;28;20053;-83
2024/03/04 12:15:15;;;;;;;6.45;1.10;;;13.60;1.00;;;;;;6239437;28;20420;-85
2024/03/04 12:18:17;;;;;;;11.27;1.50;;;14.30;1.00;;;;;;6239354;28;20065;-91
2024/03/04 12:21:19;;;;;;;8.38;1.45;;;14.70;1.00;;;;;;6282730;28;20057;-87
2024/03/04 12:24:22;;;;;;;5.50;1.08;;;15.20;1.00;;;;;;6264470;28;20063;-87
2024/03/04 12:27:25;;;;;;;7.05;1.05;;;15.50;1.00;;;;;;6285851;28;20060;-87
2024/03/04 12:30:27;;;;;;;5.68;0.90;;;15.80;1.00;;;;;;6227023;28;20053;-89
2024/03/04 12:33:29;;;;;;;3.10;0.70;;;16.10;1.00;;;;;;6284383;28;20427;-87
2024/03/04 12:36:30;;;;;;;5.10;1.08;;;15.40;1.00;;;;;;6244804;28;20053;-85
2024/03/04 12:39:32;;;;;;;4.32;0.70;;;14.70;1.00;;;;;;6284744;28;20079;-88
2024/03/04 12:42:34;;;;;;;2.22;0.70;;;14.10;1.00;;;;;;6260738;28;20057;-86
2024/03/04 12:45:36;;;;;;;4.18;1.08;;;13.60;1.00;;;;;;6280575;28;20484;-87
2024/03/04 12:48:38;;;;;;;4.18;0.80;;;13.40;1.00;;;;;;6235678;28;20192;-89
2024/03/04 12:51:40;;;;;;;7.93;1.30;;;13.30;1.00;;;;;;6268101;28;20506;-89
2024/03/04 12:54:42;;;;;;;6.30;1.20;;;13.30;1.00;;;;;;6244859;28;20063;-88
2024/03/04 12:57:44;;;;;;;5.10;1.27;;;13.10;1.00;;;;;;6266465;28;20053;-88
2024/03/04 13:00:46;;;;;;;7.50;1.50;;;13.10;1.00;;;;;;6246208;28;20053;-87
2024/03/04 13:03:48;;;;;;;5.60;1.30;;;13.40;1.00;;;;;;6219994;28;20046;-87
2024/03/04 13:06:49;;;;;;;7.20;1.40;;;13.40;1.00;;;;;;6267824;28;20049;-90
2024/03/04 13:09:51;;;;;;;7.00;1.40;;;13.50;1.00;;;;;;6278260;28;20432;-88
2024/03/04 13:12:53;;;;;;;8.25;1.52;;;13.20;1.00;;;;;;6248271;28;20049;-88
2024/03/04 13:15:55;;;;;;;8.60;1.50;;;13.10;1.00;;;;;;6241972;28;20061;-89
2024/03/04 13:18:57;;;;;;;8.10;1.65;;;12.80;1.00;;;;;;6237965;28;20521;-86
2024/03/04 13:21:58;;;;;;;7.55;1.50;;;12.60;1.00;;;;;;6269218;28;20060;-88
2024/03/04 13:25:00;;;;;;;7.60;1.70;;;12.50;1.00;;;;;;6264574;28;20057;-88
2024/03/04 13:28:05;;;;;;;4.07;1.30;;;12.60;1.00;;;;;;6279934;28;20130;-82
2024/03/04 13:31:07;;;;;;;7.00;1.60;;;12.50;1.00;;;;;;6265936;28;20065;-87
2024/03/04 13:34:09;;;;;;;6.88;1.40;;;12.70;1.00;;;;;;6287876;28;20441;-86
2024/03/04 13:37:11;;;;;;;8.10;1.55;;;12.80;1.00;;;;;;6264801;28;20060;-87
2024/03/04 13:40:14;;;;;;;4.78;1.20;;;12.80;1.00;;;;;;6288814;28;20195;-86
2024/03/04 13:43:15;;;;;;;8.52;1.48;;;12.50;1.00;;;;;;6252395;28;20045;-87
2024/03/04 13:46:21;;;;;;;6.55;1.38;;;12.30;1.00;;;;;;6287872;28;20255;-87
2024/03/04 13:49:23;;;;;;;5.95;1.13;;;12.20;1.00;;;;;;6264257;28;20057;-87
2024/03/04 13:52:24;;;;;;;6.75;1.30;;;12.20;1.00;;;;;;6272653;28;20140;-87
2024/03/04 13:55:26;;;;;;;11.23;1.52;;;12.10;1.00;;;;;;6249103;28;20136;-87
2024/03/04 13:58:28;;;;;;;6.25;1.80;;;12.10;1.00;;;;;;6246034;28;20045;-87
2024/03/04 14:01:30;;;;;;;9.45;1.55;;;12.10;1.00;;;;;;6296935;28;20059;-87
2024/03/04 14:04:32;;;;;;;8.80;1.42;;;12.10;1.00;;;;;;6251439;28;20482;-86
2024/03/04 14:07:33;;;;;;;7.32;1.15;;;12.10;1.00;;;;;;6274710;28;20057;-90
2024/03/04 14:10:37;;;;;;;7.13;1.42;;;11.90;1.00;;;;;;6272073;28;20049;-82
2024/03/04 14:13:40;;;;;;;6.90;1.50;;;11.80;1.00;;;;;;6261081;28;20534;-82
2024/03/04 14:16:42;;;;;;;5.85;1.40;;;11.90;1.00;;;;;;6247157;28;20432;-84
2024/03/04 14:19:44;;;;;;;8.23;1.30;;;11.70;1.00;;;;;;6270744;28;20514;-85
2024/03/04 14:22:45;;;;;;;8.07;1.60;;;11.70;1.00;;;;;;6280035;28;20057;-88
2024/03/04 14:25:47;;;;;;;6.97;1.73;;;11.70;1.00;;;;;;6224262;28;20051;-86
2024/03/04 14:28:49;;;;;;;5.63;1.20;;;11.60;1.00;;;;;;6254243;28;20777;-86
2024/03/04 14:31:52;;;;;;;7.28;1.80;;;11.60;1.00;;;;;;6223524;28;20053;-86
2024/03/04 14:34:54;;;;;;;4.57;1.35;;;11.60;1.00;;;;;;6254310;28;20517;-89
2024/03/04 14:37:58;;;;;;;6.05;1.38;;;11.60;1.00;;;;;;6198856;28;20050;-89
2024/03/04 14:41:00;;;;;;;5.68;1.48;;;11.50;1.00;;;;;;6278357;28;20427;-89
2024/03/04 14:44:01;;;;;;;7.05;1.50;;;11.60;1.00;;;;;;6250196;28;20056;-88
2024/03/04 14:47:03;;;;;;;5.07;1.13;;;11.60;1.00;;;;;;6224179;28;20278;-89
2024/03/04 14:50:06;;;;;;;8.38;1.58;;;11.50;1.00;;;;;;6280345;28;20053;-89
2024/03/04 14:53:10;;;;;;;4.40;1.35;;;11.50;1.00;;;;;;6279698;28;20063;-87
2024/03/04 14:56:12;;;;;;;4.95;1.35;;;11.30;1.00;;;;;;6197408;28;20410;-84
2024/03/04 14:59:13;;;;;;;7.65;1.30;;;11.10;1.00;;;;;;6256901;28;20058;-86
2024/03/04 15:02:17;;;;;;;7.43;1.20;;;11.00;1.00;;;;;;6238540;28;20421;-84
2024/03/04 15:05:19;;;;;;;7.45;1.70;;;11.00;1.00;;;;;;6222449;28;20085;-83
2024/03/04 15:08:21;;;;;;;8.48;1.48;;;11.10;1.00;;;;;;6244584;28;20046;-84
2024/03/04 15:11:23;;;;;;;6.22;1.50;;;11.10;1.00;;;;;;6277765;28;20103;-88
2024/03/04 15:14:25;;;;;;;11.00;1.77;;;11.10;1.00;;;;;;6253598;28;20063;-88
2024/03/04 15:17:26;;;;;;;8.05;1.50;;;11.00;1.00;;;;;;6215346;28;20097;-87
2024/03/04 15:20:28;;;;;;;6.38;1.60;;;10.90;1.00;;;;;;6248607;28;20148;-90
2024/03/04 15:23:30;;;;;;;6.68;1.40;;;11.10;1.00;;;;;;6253200;28;20153;-91
2024/03/04 15:26:34;;;;;;;7.90;1.63;;;11.00;1.00;;;;;;6196616;28;20054;-91
2024/03/04 15:29:36;;;;;;;7.68;1.95;;;11.00;1.00;;;;;;6257826;28;20050;-83
2024/03/04 15:32:38;;;;;;;7.57;1.65;;;11.00;1.00;;;;;;6230544;28;20050;-85
2024/03/04 15:35:40;;;;;;;7.05;1.83;;;10.90;1.00;;;;;;6234639;28;20050;-85
2024/03/04 15:38:42;;;;;;;7.75;1.80;;;10.80;1.00;;;;;;6228044;28;20050;-92
2024/03/04 15:41:44;;;;;;;8.10;1.80;;;10.80;1.00;;;;;;6245038;28;20060;-82
2024/03/04 15:44:46;;;;;;;6.72;1.80;;;10.80;1.00;;;;;;6247038;28;20061;-82
2024/03/04 15:47:48;;;;;;;8.02;1.80;;;10.80;1.00;;;;;;6219312;28;20054;-84
2024/03/04 15:50:49;;;;;;;10.43;1.92;;;10.80;1.00;;;;;;6195980;28;20150;-86
2024/03/04 15:53:51;;;;;;;7.90;1.88;;;10.70;1.00;;;;;;6229723;28;21009;-85
2024/03/04 15:56:53;;;;;;;9.05;2.10;;;10.60;1.00;;;;;;6275703;28;20057;-83
2024/03/04 15:59:54;;;;;;;7.35;1.80;;;10.50;1.00;;;;;;6215324;28;20046;-85